Fort Davis, TX

6:45 PM CDT on May 03, 2015 (GMT -0500)
Alpine | | Change Station
CLOSE
Current Station
Airport
Location: Alpine,
Elevation: 4514 ft
Nearby Weather Stations

Elev 4514 ft 30.38 °N, 103.68 °W | Updated 10 minutes ago

Overcast
Overcast
78 °F
Feels Like 78 °F
N
13
Wind Variable Wind from SE
Gusts 17 mph

Today
High -- | Low -- °F
--% Chance of Precip.
Yesterday
High -- | Low -- °F
Precip. -- in
7:10 AM 8:35 PM
Full, 100% visible
Pressure 29.96 in
Visibility 10.0 miles
Clouds Scattered Clouds 12000 ft
Dew Point 46 °F
Humidity 33%
Rainfall 0.00 in
Snow Depth Not available.
UV 2 out of 12
Pollen 7.20 out of 12
Air Quality Not available.
Flu Activity Sporadic
METAR KE38 032335Z AUTO 14011G15KT 10SM VCTS SCT120 26/08 A2996 RMK AO2 LTG DSNT NW T02550080

More Conditions Fewer Conditions

Pressure 29.96 in
Visibility 10.0 miles
Clouds Scattered Clouds 12000 ft
Dew Point 46 °F
Humidity 33%
Rainfall 0.00 in
Snow Depth Not available.
UV 2 out of 12
Pollen 7.20 out of 12
Air Quality Not available.
Flu Activity Sporadic
METAR KE38 032335Z AUTO 14011G15KT 10SM VCTS SCT120 26/08 A2996 RMK AO2 LTG DSNT NW T02550080

More Conditions Fewer Conditions

Nepal has a long way to go to dig out and rebuild from a devastating earthquake. We have teamed up with several charities and organizations to make contributing to the relief effort as easy as possible.
How you can help: Portlight Strategies | Red Cross

10-Day Weather Forecast

Almanac

Astronomy

May. 03, 2015 Rise Set
Actual Time
Civil Twilight
Nautical Twilight
Astronomical Twilight
Moon
Length of Visible Light
Length of Day
Tomorrow will be .
, % of the Moon is Illuminated

Today's Extremes

State Highs State Lows

Community

WunderPhotos

Upload Photos

1,818,422 photos uploaded!

WunderBlogs® & News

Nearby

Air Quality

  Air Quality AQ Index Pollutant
Not available.

Snow Depth

Station Depth Elevation

Earthquake Activity

City Distance Mag. Time & Date
Minimum magnitude displayed is 2.5.

Coastal Water Temperatures

Place Temperature

Stations

Nearby Weather Stations

Station Location Temp. Windchill Dew Point Humidity Wind Precip. Elev Updated Type